Time;durP1;ratioP1;P1;durP2;ratioP2;P2;SDS_P1;SDS_P2;PMS_P1;PMS_P2;Temp;Humidity;BMP_temperature;BMP_pressure;BME280_temperature;BME280_humidity;BME280_pressure;Samples;Min_cycle;Max_cycle;Signal;HPM_P1;HPM_P2
2023/01/14 00:00:39;;;;;;;63.53;44.25;;;7.80;99.90;;;;;;5069922;28;20036;-48
2023/01/14 00:03:04;;;;;;;61.17;43.00;;;7.80;99.90;;;;;;5055417;28;20024;-49
2023/01/14 00:05:30;;;;;;;60.17;41.67;;;7.80;99.90;;;;;;5069346;28;20104;-49
2023/01/14 00:07:56;;;;;;;58.50;40.63;;;7.80;99.90;;;;;;5054588;28;20045;-48
2023/01/14 00:10:21;;;;;;;63.30;41.47;;;7.70;99.90;;;;;;5072434;28;20025;-52
2023/01/14 00:12:47;;;;;;;60.17;42.63;;;7.70;99.90;;;;;;5073504;28;20048;-51
2023/01/14 00:15:13;;;;;;;57.03;40.92;;;7.70;99.90;;;;;;5056795;28;20043;-51
2023/01/14 00:17:39;;;;;;;59.00;41.70;;;7.70;99.90;;;;;;5073363;28;20109;-49
2023/01/14 00:20:05;;;;;;;63.22;43.08;;;7.70;99.90;;;;;;5073516;28;20036;-49
2023/01/14 00:22:31;;;;;;;60.03;42.17;;;7.60;99.90;;;;;;5039662;28;20024;-49
2023/01/14 00:24:57;;;;;;;57.30;41.50;;;7.60;99.90;;;;;;5037093;28;20393;-50
2023/01/14 00:27:23;;;;;;;63.72;45.92;;;7.60;99.90;;;;;;5055915;28;20033;-47
2023/01/14 00:29:49;;;;;;;66.60;48.33;;;7.60;99.90;;;;;;5056071;28;20036;-49
2023/01/14 00:32:14;;;;;;;64.25;48.47;;;7.50;99.90;;;;;;5054038;28;20567;-48
2023/01/14 00:34:40;;;;;;;66.93;48.85;;;7.50;99.90;;;;;;5055733;28;20473;-48
2023/01/14 00:37:07;;;;;;;67.10;48.20;;;7.30;99.90;;;;;;5054066;28;20127;-49
2023/01/14 00:39:32;;;;;;;67.47;49.30;;;7.40;99.90;;;;;;5055917;28;20477;-47
2023/01/14 00:41:58;;;;;;;69.35;50.22;;;7.30;99.90;;;;;;5055766;28;20028;-46
2023/01/14 00:44:24;;;;;;;70.85;51.17;;;7.20;99.90;;;;;;5053775;28;20041;-50
2023/01/14 00:46:51;;;;;;;77.10;54.10;;;7.20;99.90;;;;;;5055883;28;20477;-49
2023/01/14 00:49:20;;;;;;;75.25;53.40;;;7.00;99.90;;;;;;5055647;28;20033;-49
2023/01/14 00:51:46;;;;;;;72.90;53.90;;;7.10;99.90;;;;;;5055627;28;20033;-49
2023/01/14 00:54:12;;;;;;;73.75;51.85;;;7.10;99.90;;;;;;5055284;28;20122;-46
2023/01/14 00:56:38;;;;;;;77.35;53.50;;;7.10;99.90;;;;;;5053433;28;20049;-48
2023/01/14 00:59:04;;;;;;;72.28;50.67;;;7.10;99.90;;;;;;5055574;28;20036;-50
2023/01/14 01:01:30;;;;;;;73.32;52.83;;;7.10;99.90;;;;;;5055723;28;20029;-47
2023/01/14 01:03:57;;;;;;;75.50;52.15;;;6.90;99.90;;;;;;5055259;28;20025;-51
2023/01/14 01:06:25;;;;;;;70.50;52.70;;;7.00;99.90;;;;;;5055406;28;20033;-47
2023/01/14 01:08:56;;;;;;;72.90;50.95;;;7.00;99.90;;;;;;5055201;28;20021;-50
2023/01/14 01:11:21;;;;;;;79.28;55.38;;;6.90;99.90;;;;;;5054841;28;20559;-50
2023/01/14 01:13:47;;;;;;;72.65;53.53;;;6.70;99.90;;;;;;5052521;28;20033;-51
2023/01/14 01:16:15;;;;;;;73.97;54.38;;;6.90;99.90;;;;;;5054993;28;20123;-49
2023/01/14 01:18:43;;;;;;;74.10;52.78;;;;;;;;;;5055041;28;20105;-50
2023/01/14 01:21:14;;;;;;;86.05;58.92;;;7.00;99.90;;;;;;5055202;28;20434;-50
2023/01/14 01:23:41;;;;;;;81.15;56.08;;;7.10;99.90;;;;;;5055277;28;20036;-48
2023/01/14 01:26:09;;;;;;;86.90;60.72;;;6.90;99.90;;;;;;5053028;28;20036;-47
2023/01/14 01:28:35;;;;;;;86.47;59.70;;;6.90;99.90;;;;;;5055154;28;20104;-51
2023/01/14 01:31:12;;;;;;;81.20;58.35;;;6.90;99.90;;;;;;5054927;28;20496;-50
2023/01/14 01:33:39;;;;;;;84.00;58.25;;;6.70;99.90;;;;;;5055123;28;20025;-49
2023/01/14 01:36:11;;;;;;;80.88;56.90;;;6.70;99.90;;;;;;5054943;28;20037;-51
2023/01/14 01:38:36;;;;;;;;;;;6.90;99.90;;;;;;5036708;28;20087;-48
2023/01/14 01:41:02;;;;;;;86.90;58.78;;;6.90;99.90;;;;;;5054308;28;19912;-48
2023/01/14 01:43:31;;;;;;;91.43;58.90;;;6.90;99.90;;;;;;5054719;28;20064;-49
2023/01/14 01:45:57;;;;;;;84.57;58.15;;;6.60;99.90;;;;;;5054852;28;20380;-50
2023/01/14 01:48:43;;;;;;;92.35;63.10;;;6.80;99.90;;;;;;5054845;28;20025;-49
2023/01/14 01:51:12;;;;;;;93.22;62.47;;;6.80;99.90;;;;;;5054460;28;20032;-48
2023/01/14 01:53:41;;;;;;;83.82;60.08;;;6.90;99.90;;;;;;5054124;28;20449;-50
2023/01/14 01:56:14;;;;;;;81.43;57.90;;;6.80;99.90;;;;;;5054496;28;20390;-50
2023/01/14 01:58:41;;;;;;;82.75;58.42;;;6.80;99.90;;;;;;5054341;28;20143;-50
2023/01/14 02:01:07;;;;;;;78.20;55.13;;;6.80;99.90;;;;;;5054148;28;20036;-47
2023/01/14 02:03:37;;;;;;;76.05;55.72;;;6.80;99.90;;;;;;5052316;28;20044;-47
2023/01/14 02:06:04;;;;;;;80.32;54.90;;;6.80;99.90;;;;;;5048708;28;20033;-50
2023/01/14 02:08:31;;;;;;;83.53;54.95;;;6.80;99.90;;;;;;5018486;28;20152;-48
2023/01/14 02:11:05;;;;;;;82.00;55.22;;;6.80;99.90;;;;;;5051876;28;20037;-51
2023/01/14 02:13:43;;;;;;;83.93;57.53;;;6.90;99.90;;;;;;5052036;28;20131;-47
2023/01/14 02:16:27;;;;;;;80.90;55.80;;;7.00;99.90;;;;;;5034788;28;20088;-50
2023/01/14 02:19:14;;;;;;;78.43;56.65;;;6.90;99.90;;;;;;5051890;28;20044;-50
2023/01/14 02:21:51;;;;;;;83.15;57.92;;;6.70;99.90;;;;;;5051779;28;20067;-50
2023/01/14 02:24:59;;;;;;;80.97;53.97;;;6.80;99.90;;;;;;5051675;28;20070;-50
2023/01/14 02:27:24;;;;;;;81.75;56.72;;;6.60;99.90;;;;;;4975976;28;20113;-48
2023/01/14 02:30:17;;;;;;;84.43;57.92;;;6.60;99.90;;;;;;4992262;28;20546;-51
2023/01/14 02:33:12;;;;;;;84.05;57.40;;;6.70;99.90;;;;;;4992222;28;20513;-47
2023/01/14 02:35:47;;;;;;;81.50;55.17;;;6.90;99.90;;;;;;4992275;28;20034;-49
2023/01/14 02:38:36;;;;;;;82.43;59.15;;;6.60;99.90;;;;;;5011640;28;20120;-47
2023/01/14 02:41:21;;;;;;;87.70;58.72;;;6.60;99.90;;;;;;5011869;28;20140;-50
2023/01/14 02:44:11;;;;;;;90.90;60.58;;;6.70;99.90;;;;;;5011880;28;20111;-48
2023/01/14 02:47:23;;;;;;;104.05;68.22;;;6.70;99.90;;;;;;5011749;28;20039;-50
2023/01/14 02:49:52;;;;;;;104.25;67.78;;;6.80;99.90;;;;;;4952900;29;20504;-48
2023/01/14 02:52:19;;;;;;;107.53;71.82;;;6.90;99.90;;;;;;4953064;29;20412;-49
2023/01/14 02:55:14;;;;;;;110.18;74.60;;;7.00;99.90;;;;;;4953140;29;20055;-49
2023/01/14 02:57:57;;;;;;;117.18;78.45;;;7.00;99.90;;;;;;4951931;29;20043;-47
2023/01/14 03:00:34;;;;;;;;;;;7.20;99.90;;;;;;4953681;29;20119;-47
2023/01/14 03:03:20;;;;;;;127.45;85.47;;;7.10;99.90;;;;;;4953049;29;19906;-50
2023/01/14 03:06:12;;;;;;;130.00;88.28;;;7.00;99.90;;;;;;4991766;28;20541;-50
2023/01/14 03:09:02;;;;;;;132.98;89.55;;;7.10;99.90;;;;;;4991926;28;20038;-49
2023/01/14 03:11:38;;;;;;;131.65;88.75;;;7.10;99.90;;;;;;4991639;28;20049;-51
2023/01/14 03:14:16;;;;;;;129.77;87.88;;;7.10;99.90;;;;;;4991738;28;20105;-48
2023/01/14 03:16:46;;;;;;;115.57;78.53;;;7.10;99.90;;;;;;4959105;28;20046;-50
2023/01/14 03:19:27;;;;;;;114.15;80.82;;;7.20;99.90;;;;;;4991534;28;20041;-48
2023/01/14 03:21:57;;;;;;;110.47;77.57;;;7.00;99.90;;;;;;4991316;28;20049;-47
2023/01/14 03:24:49;;;;;;;105.28;69.38;;;6.70;99.90;;;;;;4991562;28;20497;-51
2023/01/14 03:27:23;;;;;;;105.72;70.97;;;;;;;;;;5047984;28;20037;-50
2023/01/14 03:29:51;;;;;;;109.78;74.00;;;;;;;;;;5054062;28;20037;-48
2023/01/14 03:32:41;;;;;;;101.40;69.38;;;;;;;;;;5053494;28;20029;-51
2023/01/14 03:35:12;;;;;;;102.03;71.38;;;6.30;99.90;;;;;;5030973;28;20061;-50
2023/01/14 03:37:43;;;;;;;107.50;73.20;;;6.30;99.90;;;;;;5030738;28;20056;-49
2023/01/14 03:40:12;;;;;;;103.45;73.30;;;6.40;99.90;;;;;;5030825;28;20037;-50
2023/01/14 03:42:44;;;;;;;110.63;75.65;;;6.30;99.90;;;;;;5030848;28;20029;-50
2023/01/14 03:45:16;;;;;;;99.35;63.75;;;6.40;99.90;;;;;;5030732;28;20049;-50
2023/01/14 03:47:44;;;;;;;100.72;67.78;;;6.40;99.90;;;;;;5030783;28;20576;-49
2023/01/14 03:50:14;;;;;;;99.53;71.65;;;6.40;99.90;;;;;;4997574;28;20033;-51
2023/01/14 03:52:54;;;;;;;106.57;72.07;;;6.30;99.90;;;;;;5014106;28;20135;-51
2023/01/14 03:55:33;;;;;;;107.18;70.82;;;6.40;99.90;;;;;;5046878;28;20489;-49
2023/01/14 03:58:01;;;;;;;95.07;64.18;;;6.50;99.90;;;;;;5030618;28;20043;-48
2023/01/14 04:00:57;;;;;;;98.78;66.43;;;6.50;99.90;;;;;;5030526;28;20481;-47
2023/01/14 04:03:25;;;;;;;93.60;63.30;;;6.60;99.90;;;;;;5028359;28;20042;-50
2023/01/14 04:05:52;;;;;;;91.00;63.03;;;6.70;99.90;;;;;;5030571;28;20036;-50
2023/01/14 04:08:23;;;;;;;95.05;61.97;;;6.60;99.90;;;;;;5030616;28;20032;-47
2023/01/14 04:10:49;;;;;;;89.72;61.65;;;;;;;;;;5028131;28;20026;-50
2023/01/14 04:16:01;;;;;;;84.95;57.20;;;7.10;99.90;;;;;;5052957;28;20083;-49
2023/01/14 04:18:27;;;;;;;83.18;57.80;;;7.10;99.90;;;;;;5052351;28;20112;-47
2023/01/14 04:20:53;;;;;;;77.88;52.95;;;7.30;99.90;;;;;;5052578;28;20059;-51
2023/01/14 04:23:18;;;;;;;85.22;56.22;;;7.50;99.90;;;;;;5052608;28;20025;-47
2023/01/14 04:25:44;;;;;;;79.50;54.50;;;7.40;99.90;;;;;;5052729;28;20048;-47
2023/01/14 04:28:10;;;;;;;75.80;53.35;;;7.40;99.90;;;;;;5084241;28;20032;-51
2023/01/14 04:30:36;;;;;;;76.00;53.70;;;7.40;99.90;;;;;;5054224;28;20427;-50
2023/01/14 04:33:02;;;;;;;77.70;53.47;;;7.50;99.90;;;;;;5056259;28;20051;-47
2023/01/14 04:35:28;;;;;;;77.33;54.73;;;7.60;99.90;;;;;;5056102;28;20484;-50
2023/01/14 04:37:54;;;;;;;70.80;50.80;;;7.70;99.90;;;;;;5070810;28;20435;-50
2023/01/14 04:40:23;;;;;;;76.78;51.60;;;7.60;99.90;;;;;;5087460;28;20029;-51
2023/01/14 04:42:50;;;;;;;79.38;55.08;;;7.60;99.90;;;;;;5070519;28;20036;-50
2023/01/14 04:45:16;;;;;;;80.47;55.83;;;7.20;99.90;;;;;;5055721;28;20036;-50
2023/01/14 04:47:42;;;;;;;82.10;54.80;;;7.20;99.90;;;;;;5055833;28;20029;-51
2023/01/14 04:52:53;;;;;;;90.05;61.70;;;6.90;99.90;;;;;;5068380;28;20051;-48
2023/01/14 04:55:19;;;;;;;85.97;59.63;;;7.00;99.90;;;;;;5069928;28;20052;-48
2023/01/14 04:57:45;;;;;;;86.90;57.17;;;6.80;99.90;;;;;;5070108;28;20052;-50
2023/01/14 05:00:11;;;;;;;92.50;60.33;;;6.80;99.90;;;;;;5055448;28;20033;-48
2023/01/14 05:02:38;;;;;;;86.72;62.55;;;6.90;99.90;;;;;;5053181;28;20052;-50
2023/01/14 05:05:04;;;;;;;101.38;66.95;;;7.00;99.90;;;;;;5055704;28;20388;-50
2023/01/14 05:07:30;;;;;;;90.35;62.45;;;6.80;99.90;;;;;;5070133;28;20033;-46
2023/01/14 05:09:55;;;;;;;91.00;62.28;;;6.80;99.90;;;;;;5055338;28;20156;-51
2023/01/14 05:12:21;;;;;;;89.05;58.90;;;6.70;99.90;;;;;;5070025;28;20120;-48
2023/01/14 05:14:47;;;;;;;95.85;62.53;;;6.60;99.90;;;;;;5069933;28;20125;-49
2023/01/14 05:17:12;;;;;;;93.47;62.85;;;6.80;99.90;;;;;;5069918;28;20051;-49
2023/01/14 05:19:38;;;;;;;94.72;64.63;;;6.80;99.90;;;;;;5069937;28;20044;-50
2023/01/14 05:22:04;;;;;;;89.93;62.60;;;;;;;;;;5055424;28;20080;-48
2023/01/14 05:24:30;;;;;;;88.88;61.40;;;6.80;99.90;;;;;;5069871;28;20037;-47
2023/01/14 05:26:56;;;;;;;95.55;63.22;;;6.80;99.90;;;;;;5069967;28;20492;-47
2023/01/14 05:29:21;;;;;;;86.55;59.75;;;7.00;99.90;;;;;;5055335;28;20502;-48
2023/01/14 05:31:47;;;;;;;94.90;62.47;;;7.00;99.90;;;;;;5054808;28;20039;-49
2023/01/14 05:34:15;;;;;;;91.53;57.72;;;7.10;99.90;;;;;;5070392;28;20029;-48
2023/01/14 05:36:41;;;;;;;94.95;64.70;;;6.90;99.90;;;;;;5069228;28;20049;-51
2023/01/14 05:39:06;;;;;;;82.28;58.47;;;6.90;99.90;;;;;;5054681;28;20033;-50
2023/01/14 05:41:32;;;;;;;84.40;55.25;;;6.60;99.90;;;;;;5059430;28;20041;-47
2023/01/14 05:46:45;;;;;;;91.38;61.75;;;6.60;99.90;;;;;;5055482;28;20595;-52
2023/01/14 05:49:10;;;;;;;98.38;64.38;;;6.60;99.90;;;;;;5054637;28;20033;-50
2023/01/14 05:51:36;;;;;;;114.10;71.00;;;6.50;99.90;;;;;;5054392;28;20021;-48
2023/01/14 05:54:02;;;;;;;115.03;70.95;;;6.60;99.90;;;;;;5019138;28;20037;-50
2023/01/14 05:56:28;;;;;;;96.95;63.17;;;6.50;99.90;;;;;;5054262;28;20049;-47
2023/01/14 05:58:54;;;;;;;102.85;64.03;;;6.50;99.90;;;;;;5054568;28;20041;-49
2023/01/14 06:06:50;;;;;;;99.60;62.25;;;6.60;99.90;;;;;;5054812;28;20044;-50
2023/01/14 06:09:17;;;;;;;133.52;86.30;;;6.50;99.90;;;;;;5054663;28;20456;-49
2023/01/14 06:11:49;;;;;;;104.95;64.35;;;6.60;99.90;;;;;;5054766;28;20099;-48
2023/01/14 06:14:15;;;;;;;95.18;61.53;;;6.70;99.90;;;;;;5055065;28;20036;-50
2023/01/14 06:16:40;;;;;;;100.43;65.45;;;6.80;99.90;;;;;;5055203;28;20124;-50
2023/01/14 06:19:12;;;;;;;100.68;63.78;;;6.80;99.90;;;;;;5055076;28;20040;-49
2023/01/14 06:21:38;;;;;;;102.40;62.22;;;6.70;99.90;;;;;;5054709;28;20071;-47
2023/01/14 06:24:04;;;;;;;97.25;63.17;;;6.70;99.90;;;;;;5053715;28;20362;-51
2023/01/14 06:26:33;;;;;;;98.00;60.95;;;6.70;99.90;;;;;;5054180;28;20098;-47
2023/01/14 06:29:08;;;;;;;101.47;63.35;;;6.80;99.90;;;;;;5053800;28;20029;-51
2023/01/14 06:31:35;;;;;;;92.80;59.22;;;6.80;99.90;;;;;;5053649;28;20120;-50
2023/01/14 06:34:01;;;;;;;105.63;62.13;;;6.80;99.90;;;;;;5053782;28;20029;-49
2023/01/14 06:36:28;;;;;;;89.85;53.88;;;6.80;99.90;;;;;;5053824;28;20120;-47
2023/01/14 06:38:54;;;;;;;96.45;60.53;;;6.70;99.90;;;;;;5054105;28;20115;-48
2023/01/14 06:41:20;;;;;;;101.95;62.10;;;6.70;99.90;;;;;;5054181;28;20476;-50
2023/01/14 06:43:46;;;;;;;97.53;60.92;;;6.60;99.90;;;;;;5051928;28;20044;-47
2023/01/14 06:46:14;;;;;;;96.10;58.85;;;6.70;99.90;;;;;;5053269;28;20033;-51
2023/01/14 06:48:40;;;;;;;90.80;53.97;;;6.60;99.90;;;;;;5053702;28;20033;-50
2023/01/14 06:51:17;;;;;;;103.35;62.05;;;6.60;99.90;;;;;;5053946;28;20032;-49
2023/01/14 06:53:43;;;;;;;105.53;64.10;;;6.60;99.90;;;;;;5036007;28;20136;-49
2023/01/14 06:56:11;;;;;;;104.93;60.88;;;6.70;99.90;;;;;;5052921;28;20032;-53
2023/01/14 06:58:38;;;;;;;104.18;62.72;;;6.60;99.90;;;;;;5054243;28;20040;-51
2023/01/14 07:01:05;;;;;;;101.03;62.53;;;6.70;99.90;;;;;;5052062;28;20033;-50
2023/01/14 07:03:31;;;;;;;128.20;75.05;;;6.40;99.90;;;;;;5030353;28;20394;-49
2023/01/14 07:05:59;;;;;;;109.22;65.18;;;6.50;99.90;;;;;;5028897;28;20033;-50
2023/01/14 07:08:25;;;;;;;120.90;72.57;;;6.50;99.90;;;;;;5029849;28;20056;-48
2023/01/14 07:10:51;;;;;;;96.95;61.83;;;6.70;99.90;;;;;;5013268;28;20477;-50
2023/01/14 07:13:18;;;;;;;95.82;62.45;;;6.70;99.90;;;;;;5014467;28;20045;-50
2023/01/14 07:15:44;;;;;;;93.90;60.45;;;6.80;99.90;;;;;;5013660;28;20043;-50
2023/01/14 07:18:11;;;;;;;93.85;59.85;;;6.70;99.90;;;;;;5013022;28;20103;-50
2023/01/14 07:20:37;;;;;;;95.05;61.72;;;6.80;99.90;;;;;;5028710;28;20127;-51
2023/01/14 07:23:03;;;;;;;93.65;60.70;;;6.80;99.90;;;;;;5030735;28;20128;-48
2023/01/14 07:25:29;;;;;;;101.57;63.45;;;6.80;99.90;;;;;;5029625;28;20067;-49
2023/01/14 07:27:55;;;;;;;87.93;58.70;;;6.80;99.90;;;;;;5008532;28;20057;-50
2023/01/14 07:30:22;;;;;;;91.50;59.95;;;6.90;99.90;;;;;;5029452;28;20033;-50
2023/01/14 07:32:48;;;;;;;87.15;59.45;;;6.90;99.90;;;;;;5031030;28;20587;-47
2023/01/14 07:35:14;;;;;;;74.65;50.03;;;6.80;99.90;;;;;;5048556;28;20052;-49
2023/01/14 07:37:39;;;;;;;93.88;57.90;;;6.70;99.90;;;;;;5053078;28;20543;-51
2023/01/14 07:40:06;;;;;;;86.03;57.33;;;6.80;99.90;;;;;;5052800;28;20104;-49
2023/01/14 07:42:32;;;;;;;87.25;58.75;;;6.80;99.90;;;;;;5009605;28;20042;-48
2023/01/14 07:44:57;;;;;;;90.10;60.33;;;6.80;99.90;;;;;;5009810;28;20048;-50
2023/01/14 07:47:23;;;;;;;81.60;52.40;;;6.90;99.90;;;;;;5009539;28;20050;-49
2023/01/14 07:49:49;;;;;;;89.93;59.70;;;6.90;99.90;;;;;;5009734;28;20076;-49
2023/01/14 07:52:15;;;;;;;90.38;59.63;;;7.00;99.90;;;;;;5009738;28;20029;-51
2023/01/14 07:54:41;;;;;;;94.63;63.25;;;7.00;99.90;;;;;;5009563;28;20530;-50
2023/01/14 07:57:12;;;;;;;81.03;52.60;;;7.10;99.90;;;;;;5009611;28;20042;-48
2023/01/14 07:59:39;;;;;;;91.43;59.50;;;7.10;99.90;;;;;;5025634;28;20042;-49
2023/01/14 08:02:08;;;;;;;87.97;60.25;;;7.20;99.90;;;;;;5009741;28;20038;-49
2023/01/14 08:04:34;;;;;;;88.65;59.13;;;7.20;99.90;;;;;;5010007;28;20057;-48
2023/01/14 08:06:59;;;;;;;85.97;58.63;;;7.20;99.90;;;;;;5013245;28;20121;-50
2023/01/14 08:09:26;;;;;;;89.32;59.10;;;7.20;99.90;;;;;;5013449;28;20144;-47
2023/01/14 08:11:54;;;;;;;85.70;59.38;;;7.30;99.90;;;;;;5013404;28;20095;-48
2023/01/14 08:14:20;;;;;;;82.55;53.35;;;7.30;99.90;;;;;;5013191;28;20076;-48
2023/01/14 08:16:46;;;;;;;87.22;58.13;;;7.30;99.90;;;;;;5013285;28;20170;-48
2023/01/14 08:19:12;;;;;;;84.75;58.65;;;7.40;99.90;;;;;;5021278;28;20053;-51
2023/01/14 08:21:38;;;;;;;83.40;55.97;;;6.40;99.90;;;;;;5055434;28;20044;-49
2023/01/14 08:24:05;;;;;;;87.53;57.20;;;7.40;99.90;;;;;;5055251;28;20033;-49
2023/01/14 08:26:30;;;;;;;89.07;57.05;;;7.40;99.90;;;;;;5019572;28;20083;-50
2023/01/14 08:28:56;;;;;;;86.25;54.90;;;7.50;99.90;;;;;;5055182;28;20115;-48
2023/01/14 08:31:22;;;;;;;84.43;53.47;;;7.50;99.90;;;;;;5055516;28;20039;-47
2023/01/14 08:33:47;;;;;;;82.40;57.35;;;7.50;99.90;;;;;;5055391;28;20473;-48
2023/01/14 08:36:16;;;;;;;76.22;50.22;;;7.60;99.90;;;;;;5055156;28;20472;-48
2023/01/14 08:38:48;;;;;;;80.75;57.42;;;7.50;99.90;;;;;;5054555;28;20431;-51
2023/01/14 08:41:14;;;;;;;;;;;7.60;99.90;;;;;;5055327;28;20033;-49
2023/01/14 08:43:41;;;;;;;76.75;50.30;;;7.60;99.90;;;;;;5055048;28;19909;-49
2023/01/14 08:46:09;;;;;;;81.53;55.78;;;7.70;99.90;;;;;;5052755;28;20060;-48
2023/01/14 08:48:35;;;;;;;65.95;43.28;;;7.70;99.90;;;;;;5012673;28;20129;-48
2023/01/14 08:51:03;;;;;;;81.38;56.92;;;7.60;99.90;;;;;;5012561;28;20044;-51
2023/01/14 08:53:30;;;;;;;74.90;51.08;;;7.60;99.90;;;;;;4995990;28;20048;-50
2023/01/14 08:55:59;;;;;;;76.95;55.17;;;7.70;99.90;;;;;;5012302;28;20042;-49
2023/01/14 08:58:26;;;;;;;77.97;55.47;;;7.80;99.90;;;;;;5012390;28;20129;-48
2023/01/14 09:00:59;;;;;;;79.93;54.15;;;7.80;99.90;;;;;;5012357;28;20045;-47
2023/01/14 09:03:27;;;;;;;79.28;52.70;;;7.80;99.90;;;;;;5012323;28;20173;-48
2023/01/14 09:06:00;;;;;;;77.28;54.38;;;7.80;99.90;;;;;;5011043;28;20038;-49
2023/01/14 09:17:05;;;;;;;73.32;49.55;;;7.90;99.90;;;;;;4927473;29;20492;-51
2023/01/14 09:19:43;;;;;;;80.22;58.40;;;7.90;99.90;;;;;;4934634;29;20114;-50
2023/01/14 09:22:11;;;;;;;74.95;51.72;;;7.90;99.90;;;;;;4934423;29;20043;-51
2023/01/14 09:24:37;;;;;;;78.15;51.85;;;7.90;99.90;;;;;;4933643;29;20126;-50
2023/01/14 09:27:03;;;;;;;72.38;52.80;;;7.90;99.90;;;;;;4954400;28;20459;-50
2023/01/14 09:29:29;;;;;;;78.75;55.40;;;8.00;99.90;;;;;;4972935;28;20043;-48
2023/01/14 09:31:54;;;;;;;86.70;60.95;;;8.10;99.90;;;;;;4972671;28;20126;-49
2023/01/14 09:34:20;;;;;;;95.07;65.47;;;8.20;99.90;;;;;;4955139;28;20043;-50
2023/01/14 09:36:46;;;;;;;82.70;58.45;;;8.20;99.90;;;;;;4966184;28;20046;-48
2023/01/14 09:39:12;;;;;;;81.50;57.20;;;8.20;99.90;;;;;;4962245;28;20042;-50
2023/01/14 09:41:50;;;;;;;77.72;53.20;;;8.20;99.90;;;;;;4952710;29;20043;-50
2023/01/14 09:44:16;;;;;;;70.82;49.90;;;8.20;99.90;;;;;;4963601;28;20042;-50
2023/01/14 09:46:42;;;;;;;71.05;51.20;;;8.40;99.90;;;;;;4932044;28;20503;-50
2023/01/14 09:49:13;;;;;;;73.00;50.95;;;8.30;99.90;;;;;;5033775;28;20087;-49
2023/01/14 09:52:11;;;;;;;70.50;49.08;;;8.30;99.90;;;;;;5034085;28;20038;-51
2023/01/14 09:55:21;;;;;;;70.50;47.85;;;8.20;99.90;;;;;;5033420;28;20128;-51
2023/01/14 09:57:53;;;;;;;70.93;52.67;;;8.20;99.90;;;;;;4972286;28;20074;-52
2023/01/14 10:00:27;;;;;;;75.00;51.10;;;8.20;99.90;;;;;;4960955;28;20088;-48
2023/01/14 10:03:02;;;;;;;69.88;49.08;;;8.20;99.90;;;;;;4966785;28;20316;-48
2023/01/14 10:05:32;;;;;;;77.97;54.67;;;8.20;99.90;;;;;;4971895;28;20042;-49
2023/01/14 10:08:01;;;;;;;67.43;47.95;;;8.20;99.90;;;;;;4969252;28;20463;-48
2023/01/14 10:10:35;;;;;;;72.32;50.50;;;8.20;99.90;;;;;;4966265;28;20051;-47
2023/01/14 10:13:06;;;;;;;73.57;50.28;;;8.30;99.90;;;;;;4952274;28;20043;-48
2023/01/14 10:15:45;;;;;;;67.90;49.83;;;8.20;99.90;;;;;;4951448;28;20066;-49
2023/01/14 10:18:19;;;;;;;69.07;49.47;;;8.30;99.90;;;;;;4956532;28;20057;-48
2023/01/14 10:21:01;;;;;;;69.15;48.05;;;8.40;99.90;;;;;;4950298;28;20130;-49
2023/01/14 10:23:29;;;;;;;70.60;52.15;;;8.50;99.90;;;;;;4952047;29;20583;-52
2023/01/14 10:25:56;;;;;;;67.57;46.38;;;8.50;99.90;;;;;;4922702;29;20068;-47
2023/01/14 10:28:27;;;;;;;77.82;54.13;;;8.40;99.90;;;;;;4881579;29;20070;-49
2023/01/14 10:30:54;;;;;;;86.85;60.25;;;8.30;99.90;;;;;;4924608;28;20042;-48
2023/01/14 10:33:21;;;;;;;70.38;50.72;;;8.40;99.90;;;;;;4936709;28;20043;-48
2023/01/14 10:36:01;;;;;;;64.20;45.42;;;8.50;99.90;;;;;;4979124;28;20041;-50
2023/01/14 10:38:27;;;;;;;58.55;42.58;;;8.60;99.90;;;;;;4970999;28;20031;-52
2023/01/14 10:41:00;;;;;;;59.00;43.13;;;8.60;99.90;;;;;;4971020;28;20093;-49
2023/01/14 10:43:44;;;;;;;61.35;44.17;;;8.60;99.90;;;;;;4986583;28;20029;-52
2023/01/14 10:46:21;;;;;;;64.40;47.47;;;8.70;99.90;;;;;;5027358;28;20053;-53
2023/01/14 10:48:55;;;;;;;65.28;47.70;;;8.80;99.90;;;;;;5028362;28;20029;-50
2023/01/14 10:51:38;;;;;;;57.47;44.00;;;9.00;99.90;;;;;;5005778;28;20044;-51
2023/01/14 10:54:11;;;;;;;60.05;40.45;;;8.90;99.90;;;;;;5027898;28;20139;-49
2023/01/14 10:56:41;;;;;;;63.50;43.97;;;8.70;99.90;;;;;;5022318;28;20396;-46
2023/01/14 10:59:43;;;;;;;60.08;36.97;;;9.20;99.90;;;;;;5051512;28;20025;-44
2023/01/14 11:02:27;;;;;;;58.13;42.20;;;8.90;99.90;;;;;;5039968;28;20030;-47
2023/01/14 11:04:53;;;;;;;56.22;38.88;;;9.00;99.90;;;;;;5032361;28;20397;-48
2023/01/14 11:07:40;;;;;;;59.97;41.97;;;8.70;99.90;;;;;;5032048;28;20477;-45
2023/01/14 11:10:21;;;;;;;52.75;38.80;;;8.70;99.90;;;;;;5051207;28;20083;-47
2023/01/14 11:12:46;;;;;;;52.53;38.30;;;8.80;99.90;;;;;;5052311;28;20365;-48
2023/01/14 11:15:37;;;;;;;52.58;37.88;;;8.70;99.90;;;;;;5033190;28;20062;-46
2023/01/14 11:18:25;;;;;;;54.83;38.67;;;8.60;99.90;;;;;;5052070;28;20067;-47
2023/01/14 11:21:00;;;;;;;52.53;37.10;;;8.70;99.90;;;;;;5052204;28;20029;-47
2023/01/14 11:23:29;;;;;;;60.85;41.60;;;8.70;99.90;;;;;;5051745;28;20025;-48
2023/01/14 11:25:56;;;;;;;53.15;39.55;;;8.80;99.90;;;;;;5052279;28;20032;-50
2023/01/14 11:28:22;;;;;;;56.17;43.30;;;8.70;99.90;;;;;;5051846;28;20559;-46
2023/01/14 11:30:52;;;;;;;58.75;41.25;;;8.80;99.90;;;;;;5051951;28;20033;-45
2023/01/14 11:33:24;;;;;;;54.13;41.08;;;9.00;99.90;;;;;;5049626;28;20041;-47
2023/01/14 11:35:57;;;;;;;53.55;41.58;;;8.80;99.90;;;;;;5051891;28;20131;-47
2023/01/14 11:38:25;;;;;;;54.05;39.60;;;9.20;99.90;;;;;;5051899;28;20037;-44
2023/01/14 11:43:58;;;;;;;52.42;37.88;;;9.20;99.90;;;;;;5056221;28;20047;-46
2023/01/14 11:46:24;;;;;;;47.55;37.95;;;9.10;99.90;;;;;;5055679;28;20028;-45
2023/01/14 11:49:02;;;;;;;49.88;39.20;;;9.10;99.90;;;;;;5037023;28;20048;-46
2023/01/14 11:51:29;;;;;;;52.10;37.83;;;9.00;99.90;;;;;;5056064;28;20032;-48
2023/01/14 11:53:56;;;;;;;51.92;37.50;;;9.00;99.90;;;;;;5055784;28;20053;-46
2023/01/14 11:56:38;;;;;;;54.38;42.72;;;9.00;99.90;;;;;;5055659;28;20052;-45
2023/01/14 11:59:35;;;;;;;53.85;40.85;;;9.20;99.90;;;;;;5055824;28;20310;-47
2023/01/14 12:02:04;;;;;;;50.55;36.17;;;9.20;99.90;;;;;;5055603;28;20389;-46
2023/01/14 12:04:59;;;;;;;56.22;44.35;;;9.10;99.90;;;;;;5054831;28;20055;-47
2023/01/14 12:07:45;;;;;;;49.15;34.65;;;9.50;99.90;;;;;;5053237;28;20137;-47
2023/01/14 12:10:30;;;;;;;51.90;37.70;;;9.40;99.90;;;;;;5055584;28;20029;-47
2023/01/14 12:19:16;;;;;;;46.22;34.83;;;9.50;99.90;;;;;;5054511;28;20051;-47
2023/01/14 12:22:15;;;;;;;47.20;34.78;;;9.50;99.90;;;;;;5055066;28;20040;-47
2023/01/14 12:24:44;;;;;;;53.80;38.97;;;9.70;99.90;;;;;;4993254;28;20544;-47
2023/01/14 12:27:42;;;;;;;70.15;49.08;;;9.50;99.90;;;;;;4993370;28;20117;-47
2023/01/14 12:30:25;;;;;;;55.47;40.83;;;9.50;99.90;;;;;;4992817;28;20046;-47
2023/01/14 12:33:05;;;;;;;53.20;39.03;;;9.60;99.90;;;;;;4992099;28;20074;-47
2023/01/14 12:35:34;;;;;;;46.97;36.08;;;;;;;;;;4994403;28;20038;-47
2023/01/14 12:45:41;;;;;;;49.65;38.58;;;9.90;99.90;;;;;;4994482;28;20054;-47
2023/01/14 12:46:28;;;;;;;55.55;40.40;;;10.00;99.90;;;;;;4994210;28;20398;-48
2023/01/14 12:48:56;;;;;;;53.97;39.58;;;10.00;99.90;;;;;;4991842;28;20043;-48
2023/01/14 12:51:25;;;;;;;53.25;39.88;;;9.90;99.90;;;;;;4992643;28;20390;-47
2023/01/14 12:53:54;;;;;;;50.50;39.80;;;9.90;99.90;;;;;;4993620;28;20042;-47
2023/01/14 12:56:32;;;;;;;47.95;36.92;;;9.70;99.90;;;;;;4993468;28;20085;-46
2023/01/14 12:59:18;;;;;;;50.60;36.33;;;9.70;99.90;;;;;;4991193;28;20065;-46
2023/01/14 13:01:53;;;;;;;48.83;36.33;;;9.60;99.90;;;;;;5027375;28;20051;-47
2023/01/14 13:04:23;;;;;;;45.58;36.30;;;9.60;99.90;;;;;;5054028;28;20445;-46
2023/01/14 13:07:16;;;;;;;45.25;35.28;;;9.60;99.90;;;;;;5054096;28;20045;-48
2023/01/14 13:09:48;;;;;;;45.35;36.25;;;9.50;99.90;;;;;;5053229;28;20381;-46
2023/01/14 13:12:33;;;;;;;47.88;37.50;;;9.60;99.90;;;;;;5054745;28;20106;-46
2023/01/14 13:15:04;;;;;;;43.60;33.03;;;9.80;99.90;;;;;;5049047;28;20044;-46
2023/01/14 13:17:39;;;;;;;48.30;36.63;;;9.70;99.90;;;;;;5054689;28;20033;-46
2023/01/14 13:20:29;;;;;;;45.05;36.20;;;9.90;99.90;;;;;;5052956;28;20495;-46
2023/01/14 13:22:56;;;;;;;45.42;34.60;;;9.80;99.90;;;;;;5053878;28;20491;-47
2023/01/14 13:25:37;;;;;;;47.13;34.67;;;9.80;99.90;;;;;;5044442;28;20037;-47
2023/01/14 13:28:03;;;;;;;45.03;34.72;;;9.80;99.90;;;;;;5052089;28;20354;-48
2023/01/14 13:30:28;;;;;;;44.67;33.72;;;9.80;99.90;;;;;;5054365;28;20044;-47
2023/01/14 13:33:00;;;;;;;42.45;30.83;;;9.70;99.90;;;;;;5055318;28;20480;-46
2023/01/14 13:35:28;;;;;;;51.45;37.95;;;9.50;99.90;;;;;;5055327;28;20507;-46